Inicio METAR Ruta Wind Satelite

Informe Meteorológico

Fecha: 2021/09/21 14:24:30 Local
2021.09.21 19:24 UTC


Operación:
SKVV 211900Z 08004KT 9999 SCT020 30/21 Q1012 RMK A2989 =